Time;durP1;ratioP1;P1;durP2;ratioP2;P2;SDS_P1;SDS_P2;PMS_P1;PMS_P2;Temp;Humidity;BMP_temperature;BMP_pressure;BME280_temperature;BME280_humidity;BME280_pressure;Samples;Min_cycle;Max_cycle;Signal;HPM_P1;HPM_P2
2023/08/30 00:00:41;;;;;;;4.85;0.55;;;;;;;-142.57;100.00;115900.28;4961121;28;20051;-81
2023/08/30 00:03:07;;;;;;;1.45;0.43;;;;;;;-142.57;100.00;115900.28;4959675;28;20396;-87
2023/08/30 00:05:32;;;;;;;1.02;0.40;;;;;;;-142.57;100.00;115900.28;4958151;28;20043;-80
2023/08/30 00:07:58;;;;;;;1.45;0.40;;;;;;;-142.57;100.00;115900.28;4957472;28;20448;-86
2023/08/30 00:10:24;;;;;;;0.43;0.40;;;;;;;-142.57;100.00;115900.28;4957808;28;20428;-87
2023/08/30 00:12:49;;;;;;;0.95;0.30;;;;;;;-142.57;100.00;115900.28;4957742;29;20465;-84
2023/08/30 00:15:15;;;;;;;1.50;0.55;;;;;;;-142.57;100.00;115900.28;4957846;29;20050;-85
2023/08/30 00:17:41;;;;;;;4.50;0.80;;;;;;;-142.57;100.00;115900.28;4958611;28;20481;-80
2023/08/30 00:20:08;;;;;;;3.97;0.70;;;;;;;-142.57;100.00;115900.28;4957862;28;20043;-87
2023/08/30 00:22:35;;;;;;;1.02;0.63;;;;;;;-142.57;100.00;115900.28;4958059;29;20046;-79
2023/08/30 00:25:01;;;;;;;2.28;0.68;;;;;;;-142.57;100.00;115900.28;4957712;28;20110;-84
2023/08/30 00:27:27;;;;;;;7.32;1.10;;;;;;;-142.57;100.00;115900.28;4957345;28;20090;-81
2023/08/30 00:29:52;;;;;;;2.97;0.70;;;;;;;-142.57;100.00;115900.28;4955948;29;20107;-80
2023/08/30 00:32:18;;;;;;;1.20;0.75;;;;;;;-142.57;100.00;115900.28;4956928;28;20404;-80
2023/08/30 00:34:44;;;;;;;2.22;0.88;;;;;;;-142.57;100.00;115900.28;4957789;28;20508;-84
2023/08/30 00:37:09;;;;;;;1.63;1.00;;;;;;;-142.57;100.00;115900.28;4957474;29;20027;-85
2023/08/30 00:39:38;;;;;;;1.80;0.70;;;;;;;-142.57;100.00;115900.28;4958033;28;20058;-89
2023/08/30 00:42:07;;;;;;;3.00;1.17;;;;;;;-142.57;100.00;115900.28;4958541;28;20062;-86
2023/08/30 00:44:33;;;;;;;1.02;0.70;;;;;;;-142.57;100.00;115900.28;4972948;28;20067;-83
2023/08/30 00:47:01;;;;;;;5.78;0.95;;;;;;;-142.57;100.00;115900.28;4958292;28;20395;-80
2023/08/30 00:49:27;;;;;;;2.17;0.80;;;;;;;-142.57;100.00;115900.28;4967630;28;20031;-80
2023/08/30 00:51:54;;;;;;;1.60;0.93;;;;;;;-142.57;100.00;115900.28;4984880;28;20039;-79
2023/08/30 00:54:21;;;;;;;2.97;1.00;;;;;;;-142.57;100.00;115900.28;4962508;28;20042;-80
2023/08/30 00:56:47;;;;;;;2.33;1.05;;;;;;;-142.57;100.00;115900.28;4975086;28;20070;-79
2023/08/30 00:59:13;;;;;;;3.88;1.20;;;;;;;-142.57;100.00;115900.28;4959118;28;20031;-86
2023/08/30 01:01:40;;;;;;;8.15;1.55;;;;;;;-142.57;100.00;115900.28;4958704;28;20058;-85
2023/08/30 01:04:07;;;;;;;4.88;1.08;;;;;;;-142.57;100.00;115900.28;4955992;29;20655;-85
2023/08/30 01:06:35;;;;;;;1.98;1.17;;;;;;;-142.57;100.00;115900.28;4918521;28;1150264;-84
2023/08/30 01:09:01;;;;;;;7.93;1.35;;;;;;;-142.57;100.00;115900.28;4958368;29;20575;-87
2023/08/30 01:11:39;;;;;;;2.33;1.15;;;;;;;-142.57;100.00;115900.28;4960289;28;20131;-82
2023/08/30 01:14:09;;;;;;;4.88;1.20;;;;;;;-142.57;100.00;115900.28;4973270;28;20102;-79
2023/08/30 01:16:38;;;;;;;6.30;1.40;;;;;;;-142.57;100.00;115900.28;4973880;28;20102;-78
2023/08/30 01:19:25;;;;;;;3.72;1.45;;;;;;;-142.57;100.00;115900.28;4956991;28;20039;-80
2023/08/30 01:22:03;;;;;;;4.57;1.13;;;;;;;-142.57;100.00;115900.28;4959013;28;20083;-80
2023/08/30 01:24:37;;;;;;;3.63;1.40;;;;;;;-142.57;100.00;115900.28;4955817;29;20154;-80
2023/08/30 01:27:13;;;;;;;3.50;1.25;;;;;;;-142.57;100.00;115900.28;4957465;28;20040;-78
2023/08/30 01:29:44;;;;;;;4.63;1.38;;;;;;;-142.57;100.00;115900.28;4957135;28;20086;-81
2023/08/30 01:32:11;;;;;;;2.83;1.38;;;;;;;-142.57;100.00;115900.28;4956580;28;20480;-80
2023/08/30 01:34:38;;;;;;;5.38;1.10;;;;;;;-142.57;100.00;115900.28;4957234;28;20031;-79
2023/08/30 01:37:08;;;;;;;7.07;1.60;;;;;;;-142.57;100.00;115900.28;4955533;29;20134;-80
2023/08/30 01:39:38;;;;;;;5.57;1.33;;;;;;;-142.57;100.00;115900.28;4956442;28;20036;-80
2023/08/30 01:42:04;;;;;;;4.00;1.25;;;;;;;-142.57;100.00;115900.28;4956305;28;20036;-83
2023/08/30 01:44:31;;;;;;;7.20;1.20;;;;;;;-142.57;100.00;115900.28;4956168;29;20035;-81
2023/08/30 01:47:00;;;;;;;4.43;1.20;;;;;;;-142.57;100.00;115900.28;4956430;29;20043;-81
2023/08/30 01:49:31;;;;;;;4.80;1.27;;;;;;;-142.57;100.00;115900.28;4956148;28;20174;-80
2023/08/30 01:51:57;;;;;;;4.90;1.25;;;;;;;-142.57;100.00;115900.28;4956567;28;20036;-80
2023/08/30 01:54:24;;;;;;;1.63;1.20;;;;;;;-142.57;100.00;115900.28;4957343;28;20039;-79
2023/08/30 01:56:49;;;;;;;5.13;1.50;;;;;;;-142.57;100.00;115900.28;4957117;28;20035;-79
2023/08/30 01:59:15;;;;;;;3.60;1.20;;;;;;;-142.57;100.00;115900.28;4971341;28;20036;-78
2023/08/30 02:01:41;;;;;;;10.55;1.23;;;;;;;-142.57;100.00;115900.28;4955275;29;20503;-81
2023/08/30 02:04:06;;;;;;;4.50;0.70;;;;;;;-142.57;100.00;115900.28;4957126;29;20039;-79
2023/08/30 02:06:40;;;;;;;3.80;0.90;;;;;;;-142.57;100.00;115900.28;4956445;28;20504;-80
2023/08/30 02:09:17;;;;;;;14.00;1.20;;;;;;;-142.57;100.00;115900.28;4956758;28;20088;-79
2023/08/30 02:11:45;;;;;;;2.97;0.93;;;;;;;-142.57;100.00;115900.28;4971157;28;20070;-79
2023/08/30 02:14:17;;;;;;;2.13;1.05;;;;;;;-142.57;100.00;115900.28;4957853;28;20358;-78
2023/08/30 02:16:44;;;;;;;3.60;0.90;;;;;;;-142.57;100.00;115900.28;4957167;28;20108;-78
2023/08/30 02:19:12;;;;;;;2.20;0.80;;;;;;;-142.57;100.00;115900.28;4955994;29;20059;-79
2023/08/30 02:21:39;;;;;;;5.90;1.52;;;;;;;-142.57;100.00;115900.28;4956778;28;20039;-79
2023/08/30 02:24:05;;;;;;;7.38;1.17;;;;;;;-142.57;100.00;115900.28;4970766;28;20039;-79
2023/08/30 02:26:30;;;;;;;6.57;1.08;;;;;;;-142.57;100.00;115900.28;4954949;29;20035;-78
2023/08/30 02:28:56;;;;;;;2.25;1.05;;;;;;;-142.57;100.00;115900.28;4955999;29;20138;-81
2023/08/30 02:31:22;;;;;;;5.57;1.20;;;;;;;-142.57;100.00;115900.28;4956118;28;20084;-79
2023/08/30 02:33:48;;;;;;;1.48;1.10;;;;;;;-142.57;100.00;115900.28;4956333;29;20429;-77
2023/08/30 02:36:13;;;;;;;4.88;1.23;;;;;;;-142.57;100.00;115900.28;4971084;28;20110;-79
2023/08/30 02:38:39;;;;;;;4.30;1.30;;;;;;;-142.57;100.00;115900.28;4970568;28;20039;-80
2023/08/30 02:41:04;;;;;;;2.13;1.10;;;;;;;-142.57;100.00;115900.28;4956094;29;20117;-79
2023/08/30 02:43:30;;;;;;;4.13;1.50;;;;;;;-142.57;100.00;115900.28;4939465;29;20382;-79
2023/08/30 02:45:56;;;;;;;7.72;0.95;;;;;;;-142.57;100.00;115900.28;4954489;29;20043;-81
2023/08/30 02:48:22;;;;;;;4.80;1.30;;;;;;;-142.57;100.00;115900.28;4955925;28;20122;-77
2023/08/30 02:50:50;;;;;;;3.13;1.10;;;;;;;-142.57;100.00;115900.28;4955934;29;20035;-79
2023/08/30 02:53:15;;;;;;;7.70;1.70;;;;;;;-142.57;100.00;115900.28;4955633;29;20039;-86
2023/08/30 02:55:41;;;;;;;3.53;1.05;;;;;;;-142.57;100.00;115900.28;4955360;29;20050;-79
2023/08/30 02:58:06;;;;;;;7.72;1.30;;;;;;;-142.57;100.00;115900.28;4955592;28;20047;-79
2023/08/30 03:00:34;;;;;;;2.33;1.38;;;;;;;-142.57;100.00;115900.28;4955116;28;20117;-78
2023/08/30 03:03:00;;;;;;;5.68;1.80;;;;;;;-142.57;100.00;115900.28;4969824;28;20126;-81
2023/08/30 03:05:25;;;;;;;3.28;1.45;;;;;;;-142.57;100.00;115900.28;4955332;28;20067;-81
2023/08/30 03:07:53;;;;;;;10.52;1.60;;;;;;;-142.57;100.00;115900.28;4954461;28;20032;-82
2023/08/30 03:10:19;;;;;;;3.53;1.80;;;;;;;-142.57;100.00;115900.28;4955182;29;20373;-84
2023/08/30 03:12:49;;;;;;;6.03;1.73;;;;;;;-142.57;100.00;115900.28;4956357;29;20031;-83
2023/08/30 03:15:14;;;;;;;4.85;1.70;;;;;;;-142.57;100.00;115900.28;4972981;28;20130;-84
2023/08/30 03:17:40;;;;;;;4.15;1.55;;;;;;;-142.57;100.00;115900.28;4956238;29;20046;-79
2023/08/30 03:20:06;;;;;;;6.93;2.05;;;;;;;-142.57;100.00;115900.28;4955583;29;20058;-81
2023/08/30 03:22:32;;;;;;;5.55;1.58;;;;;;;-142.57;100.00;115900.28;4953964;29;20023;-78
2023/08/30 03:24:58;;;;;;;5.07;2.15;;;;;;;-142.57;100.00;115900.28;4955716;29;20109;-80
2023/08/30 03:27:24;;;;;;;5.60;1.75;;;;;;;-142.57;100.00;115900.28;4955171;28;20031;-78
2023/08/30 03:29:50;;;;;;;3.22;1.95;;;;;;;-142.57;100.00;115900.28;4955251;28;20182;-77
2023/08/30 03:32:17;;;;;;;3.00;1.70;;;;;;;-142.57;100.00;115900.28;4969163;29;20042;-79
2023/08/30 03:34:47;;;;;;;8.45;1.98;;;;;;;-142.57;100.00;115900.28;4970474;29;20031;-80
2023/08/30 03:37:15;;;;;;;5.68;1.85;;;;;;;-142.57;100.00;115900.28;4974648;28;20051;-79
2023/08/30 03:39:41;;;;;;;6.20;1.40;;;;;;;-142.57;100.00;115900.28;4977718;28;20043;-78
2023/08/30 03:42:07;;;;;;;3.50;1.27;;;;;;;-142.57;100.00;115900.28;4966080;28;20036;-83
2023/08/30 03:44:33;;;;;;;3.70;1.23;;;;;;;-142.57;100.00;115900.28;4975107;28;20507;-79
2023/08/30 03:46:59;;;;;;;5.72;1.27;;;;;;;-142.57;100.00;115900.28;4961097;28;20035;-80
2023/08/30 03:49:24;;;;;;;2.22;0.77;;;;;;;-142.57;100.00;115900.28;4960013;29;20178;-83
2023/08/30 03:51:50;;;;;;;5.40;1.23;;;;;;;-142.57;100.00;115900.28;4958999;28;20027;-80
2023/08/30 03:54:18;;;;;;;4.03;0.88;;;;;;;-142.57;100.00;115900.28;4958797;28;20085;-78
2023/08/30 03:56:45;;;;;;;3.03;1.13;;;;;;;-142.57;100.00;115900.28;4958190;29;20066;-82
2023/08/30 03:59:11;;;;;;;6.25;0.88;;;;;;;-142.57;100.00;115900.28;4957791;29;20031;-78
2023/08/30 04:01:38;;;;;;;10.02;0.90;;;;;;;-142.57;100.00;115900.28;4957425;29;20047;-83
2023/08/30 04:04:05;;;;;;;2.10;0.60;;;;;;;-142.57;100.00;115900.28;4974598;28;20045;-77
2023/08/30 04:06:31;;;;;;;1.67;0.60;;;;;;;-142.57;100.00;115900.28;4976927;28;20047;-84
2023/08/30 04:08:57;;;;;;;5.97;1.00;;;;;;;-142.57;100.00;115900.28;4976923;28;20046;-81
2023/08/30 04:11:23;;;;;;;3.80;0.70;;;;;;;-142.57;100.00;115900.28;4979074;28;20023;-78
2023/08/30 04:13:49;;;;;;;1.10;0.70;;;;;;;-142.57;100.00;115900.28;4980138;28;20092;-79
2023/08/30 04:16:14;;;;;;;3.53;0.80;;;;;;;-142.57;100.00;115900.28;4980325;28;20408;-85
2023/08/30 04:18:40;;;;;;;4.10;0.80;;;;;;;-142.57;100.00;115900.28;4977392;28;20042;-81
2023/08/30 04:21:08;;;;;;;4.40;0.60;;;;;;;-142.57;100.00;115900.28;4977241;28;20463;-80
2023/08/30 04:23:34;;;;;;;5.13;0.40;;;;;;;-142.57;100.00;115900.28;4992405;28;20369;-80
2023/08/30 04:25:59;;;;;;;5.40;0.40;;;;;;;-142.57;100.00;115900.28;4975742;28;20046;-80
2023/08/30 04:28:26;;;;;;;2.35;0.50;;;;;;;-142.57;100.00;115900.28;4975759;28;20035;-80
2023/08/30 04:30:54;;;;;;;3.05;0.60;;;;;;;-142.57;100.00;115900.28;4976199;28;20484;-81
2023/08/30 04:33:20;;;;;;;2.38;0.70;;;;;;;-142.57;100.00;115900.28;4976814;28;20038;-81
2023/08/30 04:35:53;;;;;;;3.72;0.68;;;;;;;-142.57;100.00;115900.28;4975371;28;20373;-84
2023/08/30 04:38:19;;;;;;;5.00;1.23;;;;;;;-142.57;100.00;115900.28;4970573;28;20039;-85
2023/08/30 04:40:46;;;;;;;2.08;1.00;;;;;;;-142.57;100.00;115900.28;4972177;28;20035;-79
2023/08/30 04:43:14;;;;;;;3.67;1.00;;;;;;;-142.57;100.00;115900.28;4955044;29;20036;-81
2023/08/30 04:45:39;;;;;;;2.55;1.00;;;;;;;-142.57;100.00;115900.28;4956243;28;20138;-79
2023/08/30 04:48:09;;;;;;;6.40;1.20;;;;;;;-142.57;100.00;115900.28;4955440;28;20038;-81
2023/08/30 04:50:34;;;;;;;5.60;1.27;;;;;;;-142.57;100.00;115900.28;4956367;29;20042;-80
2023/08/30 04:53:01;;;;;;;4.00;1.23;;;;;;;-142.57;100.00;115900.28;4957287;28;20090;-82
2023/08/30 04:55:30;;;;;;;2.97;1.02;;;;;;;-142.57;100.00;115900.28;4956061;29;20433;-84
2023/08/30 04:57:58;;;;;;;4.60;0.80;;;;;;;-142.57;100.00;115900.28;4956935;29;20047;-81
2023/08/30 05:00:26;;;;;;;2.58;0.90;;;;;;;-142.57;100.00;115900.28;4955467;29;20042;-87
2023/08/30 05:02:51;;;;;;;5.80;1.02;;;;;;;-142.57;100.00;115900.28;4957684;28;20024;-82
2023/08/30 05:05:17;;;;;;;4.03;1.17;;;;;;;-142.57;100.00;115900.28;4956716;28;20396;-86
2023/08/30 05:07:43;;;;;;;2.85;1.00;;;;;;;-142.57;100.00;115900.28;4971373;28;20039;-83
2023/08/30 05:10:09;;;;;;;4.38;0.90;;;;;;;-142.57;100.00;115900.28;4954877;29;20131;-81
2023/08/30 05:12:35;;;;;;;3.03;1.27;;;;;;;-142.57;100.00;115900.28;4971032;28;20114;-80
2023/08/30 05:15:01;;;;;;;2.20;1.10;;;;;;;-142.57;100.00;115900.28;4954730;29;20519;-80
2023/08/30 05:17:28;;;;;;;3.90;1.30;;;;;;;-142.57;100.00;115900.28;4955256;29;20043;-82
2023/08/30 05:19:55;;;;;;;6.18;1.60;;;;;;;-142.57;100.00;115900.28;4955138;29;20059;-83
2023/08/30 05:22:21;;;;;;;7.35;1.27;;;;;;;-142.57;100.00;115900.28;4955091;29;20155;-82
2023/08/30 05:24:47;;;;;;;6.15;1.13;;;;;;;-142.57;100.00;115900.28;4956224;28;20122;-83
2023/08/30 05:27:14;;;;;;;7.38;1.20;;;;;;;-142.57;100.00;115900.28;4955039;28;20042;-83
2023/08/30 05:29:40;;;;;;;3.10;1.30;;;;;;;-142.57;100.00;115900.28;4955172;29;20186;-82
2023/08/30 05:32:06;;;;;;;2.03;1.30;;;;;;;-142.57;100.00;115900.28;4955108;28;20067;-81
2023/08/30 05:34:52;;;;;;;1.98;0.73;;;;;;;-142.57;100.00;115900.28;4975001;28;20054;-82
2023/08/30 05:37:24;;;;;;;1.60;1.10;;;;;;;-142.57;100.00;115900.28;4974195;28;20404;-82
2023/08/30 05:39:52;;;;;;;3.60;0.93;;;;;;;-142.57;100.00;115900.28;4975665;28;20126;-84
2023/08/30 05:42:17;;;;;;;2.20;1.10;;;;;;;-142.57;100.00;115900.28;4975218;28;20050;-80
2023/08/30 05:44:43;;;;;;;3.40;1.08;;;;;;;-142.57;100.00;115900.28;4973779;28;20037;-80
2023/08/30 05:47:14;;;;;;;8.18;1.38;;;;;;;-142.57;100.00;115900.28;4974381;28;20034;-84
2023/08/30 05:49:40;;;;;;;3.75;1.20;;;;;;;-142.57;100.00;115900.28;4974286;28;20444;-88
2023/08/30 05:52:05;;;;;;;5.45;1.05;;;;;;;-142.57;100.00;115900.28;4975245;28;20034;-81
2023/08/30 05:54:33;;;;;;;4.75;1.40;;;;;;;-142.57;100.00;115900.28;4974631;28;20106;-85
2023/08/30 05:56:59;;;;;;;11.55;1.63;;;;;;;-142.57;100.00;115900.28;4975049;28;20031;-84
2023/08/30 05:59:25;;;;;;;3.17;1.30;;;;;;;-142.57;100.00;115900.28;4974404;28;20041;-83
2023/08/30 06:01:50;;;;;;;5.88;1.15;;;;;;;-142.57;100.00;115900.28;4978502;28;20184;-84
2023/08/30 06:04:16;;;;;;;8.82;1.50;;;;;;;-142.57;100.00;115900.28;4977088;28;20050;-83
2023/08/30 06:06:42;;;;;;;5.60;1.17;;;;;;;-142.57;100.00;115900.28;4977752;28;20484;-85
2023/08/30 06:09:08;;;;;;;4.43;1.50;;;;;;;-142.57;100.00;115900.28;4977135;28;20035;-82
2023/08/30 06:11:33;;;;;;;6.97;1.85;;;;;;;-142.57;100.00;115900.28;4977584;28;20031;-89
2023/08/30 06:13:59;;;;;;;6.60;1.20;;;;;;;-142.57;100.00;115900.28;4977947;28;20038;-87
2023/08/30 06:16:25;;;;;;;12.93;1.55;;;;;;;-142.57;100.00;115900.28;4976961;28;20037;-82
2023/08/30 06:18:50;;;;;;;10.23;1.90;;;;;;;-142.57;100.00;115900.28;4976176;28;20062;-86
2023/08/30 06:21:19;;;;;;;8.85;1.65;;;;;;;-142.57;100.00;115900.28;4975794;28;20038;-81
2023/08/30 06:23:44;;;;;;;8.38;1.45;;;;;;;-142.57;100.00;115900.28;4975382;28;20095;-83
2023/08/30 06:26:10;;;;;;;6.90;1.52;;;;;;;-142.57;100.00;115900.28;4975351;28;20039;-81
2023/08/30 06:28:35;;;;;;;2.17;1.05;;;;;;;-142.57;100.00;115900.28;4975071;28;20031;-82
2023/08/30 06:31:01;;;;;;;4.97;1.05;;;;;;;-142.57;100.00;115900.28;4974962;28;20034;-82
2023/08/30 06:33:29;;;;;;;3.92;1.02;;;;;;;-142.57;100.00;115900.28;4957711;28;20074;-83
2023/08/30 06:35:56;;;;;;;13.15;1.23;;;;;;;-142.57;100.00;115900.28;4975028;28;20046;-83
2023/08/30 06:38:21;;;;;;;6.53;0.80;;;;;;;-142.57;100.00;115900.28;4975899;28;20049;-85
2023/08/30 06:40:47;;;;;;;8.20;1.42;;;;;;;-142.57;100.00;115900.28;4976582;28;20023;-87
2023/08/30 06:43:12;;;;;;;2.42;0.80;;;;;;;-142.57;100.00;115900.28;4977591;28;20042;-81
2023/08/30 06:45:39;;;;;;;6.82;0.90;;;;;;;-142.57;100.00;115900.28;4979046;28;20038;-84
2023/08/30 06:48:12;;;;;;;7.93;1.05;;;;;;;-142.57;100.00;115900.28;4979110;28;20038;-84
2023/08/30 06:50:43;;;;;;;7.63;1.17;;;;;;;-142.57;100.00;115900.28;4978127;28;20042;-82
2023/08/30 06:53:09;;;;;;;2.42;0.98;;;;;;;-142.57;100.00;115900.28;4978409;28;20034;-88
2023/08/30 06:55:37;;;;;;;5.38;0.80;;;;;;;-142.57;100.00;115900.28;4977569;28;20043;-86
2023/08/30 06:58:03;;;;;;;3.40;0.90;;;;;;;-142.57;100.00;115900.28;4973658;28;20037;-84
2023/08/30 07:00:28;;;;;;;2.42;0.90;;;;;;;-142.57;100.00;115900.28;4976112;28;20030;-90
2023/08/30 07:02:56;;;;;;;4.25;0.68;;;;;;;-142.57;100.00;115900.28;4978038;28;20093;-88
2023/08/30 07:05:22;;;;;;;0.98;0.60;;;;;;;-142.57;100.00;115900.28;4977216;28;20489;-87
2023/08/30 07:07:48;;;;;;;4.53;0.70;;;;;;;-142.57;100.00;115900.28;4976119;28;20154;-85
2023/08/30 07:10:13;;;;;;;16.98;5.78;;;;;;;-142.57;100.00;115900.28;4975847;28;20117;-84
2023/08/30 07:12:39;;;;;;;10.30;3.60;;;;;;;-142.57;100.00;115900.28;4978565;28;20077;-83
2023/08/30 07:15:05;;;;;;;9.57;3.83;;;;;;;-142.57;100.00;115900.28;4978431;28;20085;-86
2023/08/30 07:17:30;;;;;;;12.52;3.03;;;;;;;-142.57;100.00;115900.28;4979303;28;20026;-84
2023/08/30 07:19:56;;;;;;;5.28;2.00;;;;;;;-142.57;100.00;115900.28;4978418;28;20022;-83
2023/08/30 07:22:21;;;;;;;7.15;2.03;;;;;;;-142.57;100.00;115900.28;4979831;28;20080;-86
2023/08/30 07:24:49;;;;;;;3.22;1.40;;;;;;;-142.57;100.00;115900.28;4978352;28;20480;-86
2023/08/30 07:27:15;;;;;;;10.10;1.63;;;;;;;-142.57;100.00;115900.28;4978236;28;20043;-81
2023/08/30 07:29:40;;;;;;;4.32;1.23;;;;;;;-142.57;100.00;115900.28;4976176;28;20065;-83
2023/08/30 07:32:09;;;;;;;5.78;0.80;;;;;;;-142.57;100.00;115900.28;4976160;28;20070;-84
2023/08/30 07:34:35;;;;;;;3.40;0.50;;;;;;;-142.57;100.00;115900.28;4977253;28;20468;-83
2023/08/30 07:37:04;;;;;;;5.18;0.63;;;;;;;-142.57;100.00;115900.28;4977137;28;20031;-84
2023/08/30 07:39:29;;;;;;;2.33;0.50;;;;;;;-142.57;100.00;115900.28;4977436;28;20026;-85
2023/08/30 07:41:58;;;;;;;3.40;0.60;;;;;;;-142.57;100.00;115900.28;4976732;28;20479;-83
2023/08/30 07:44:23;;;;;;;4.50;0.80;;;;;;;-142.57;100.00;115900.28;4973152;28;20125;-84
2023/08/30 07:46:49;;;;;;;1.90;0.63;;;;;;;-142.57;100.00;115900.28;4976817;28;20090;-81
2023/08/30 07:49:40;;;;;;;4.43;0.50;;;;;;;-142.57;100.00;115900.28;4976988;28;20469;-82
2023/08/30 07:52:10;;;;;;;1.40;0.40;;;;;;;-142.57;90.57;115900.28;4973798;28;20033;-82
2023/08/30 07:54:38;;;;;;;3.65;0.55;;;;;;;-142.57;82.00;115900.28;4976902;28;20129;-87
2023/08/30 07:57:12;;;;;;;1.02;0.40;;;;;;;-142.57;81.96;115900.28;4973212;28;20451;-83
2023/08/30 07:59:38;;;;;;;7.63;0.75;;;;;;;-142.57;79.81;115900.28;4976957;28;20066;-84
2023/08/30 08:02:08;;;;;;;7.53;0.75;;;;;;;-142.57;71.71;115900.28;4977066;28;20031;-83
2023/08/30 08:04:35;;;;;;;3.90;0.80;;;;;;;-142.57;72.12;115900.28;4977273;28;20115;-82
2023/08/30 08:07:02;;;;;;;2.20;0.70;;;;;;;-142.57;72.29;115900.28;4977760;28;20043;-87
2023/08/30 08:09:27;;;;;;;2.72;0.70;;;;;;;-142.57;70.22;115900.28;4976730;28;20042;-82
2023/08/30 08:11:53;;;;;;;1.35;0.60;;;;;;;-142.57;62.21;115900.28;4977146;28;20031;-84
2023/08/30 08:14:19;;;;;;;3.20;0.47;;;;;;;-142.57;57.28;115900.28;4976312;28;20054;-84
2023/08/30 08:16:45;;;;;;;3.15;0.55;;;;;;;-142.57;58.88;115900.28;4976948;28;20038;-83
2023/08/30 08:19:12;;;;;;;7.35;0.60;;;;;;;-142.57;54.11;115900.28;4976511;28;20034;-83
2023/08/30 08:21:38;;;;;;;1.42;0.52;;;;;;;-142.57;55.97;115900.28;4976425;28;20043;-86
2023/08/30 08:24:04;;;;;;;6.28;0.63;;;;;;;-142.57;55.49;115900.28;4975636;28;20139;-85
2023/08/30 08:26:29;;;;;;;2.00;0.57;;;;;;;-142.57;54.75;115900.28;4975163;28;20041;-85
2023/08/30 08:28:55;;;;;;;3.17;0.40;;;;;;;-142.57;54.78;115900.28;4975339;28;20380;-85
2023/08/30 08:31:21;;;;;;;1.02;0.47;;;;;;;-142.57;53.95;115900.28;4976471;28;20042;-83
2023/08/30 08:33:51;;;;;;;2.20;0.55;;;;;;;-142.57;51.50;115900.28;4975297;28;20139;-82
2023/08/30 08:36:17;;;;;;;4.68;0.73;;;;;;;-142.57;50.98;115900.28;4975914;28;20042;-83
2023/08/30 08:38:42;;;;;;;2.28;0.77;;;;;;;-142.57;47.85;115900.28;4976245;28;20031;-84
2023/08/30 08:41:12;;;;;;;1.50;0.50;;;;;;;-142.57;48.34;115900.28;4976696;28;20124;-83
2023/08/30 08:43:40;;;;;;;7.80;0.57;;;;;;;-142.57;50.45;115900.28;4977432;28;20141;-85
2023/08/30 08:46:47;;;;;;;1.13;0.50;;;;;;;-142.57;51.16;115900.28;4976075;28;20038;-89
2023/08/30 08:49:28;;;;;;;2.58;0.50;;;;;;;-142.57;51.43;115900.28;4924480;29;20048;-86
2023/08/30 08:51:59;;;;;;;4.07;0.60;;;;;;;-142.57;51.72;115900.28;4939571;29;20504;-87
2023/08/30 08:54:30;;;;;;;2.13;0.77;;;;;;;-142.57;49.46;115900.28;4922137;29;20138;-83
2023/08/30 08:56:57;;;;;;;2.10;0.90;;;;;;;-142.57;50.10;115900.28;4922012;29;20481;-83
2023/08/30 08:59:23;;;;;;;4.55;0.75;;;;;;;-142.57;50.49;115900.28;4937570;29;20275;-81
2023/08/30 09:01:49;;;;;;;1.48;0.82;;;;;;;-142.57;50.59;115900.28;4937106;29;20046;-82
2023/08/30 09:04:15;;;;;;;2.40;1.00;;;;;;;-142.57;48.65;115900.28;4934477;29;20035;-81
2023/08/30 09:06:43;;;;;;;1.45;0.60;;;;;;;-142.57;48.29;115900.28;4918208;29;20108;-84
2023/08/30 09:09:09;;;;;;;4.60;0.90;;;;;;;-142.57;47.45;115900.28;4936870;29;20521;-83
2023/08/30 09:11:35;;;;;;;3.55;1.20;;;;;;;-142.57;46.88;115900.28;4933979;29;20184;-80
2023/08/30 09:14:00;;;;;;;2.17;0.80;;;;;;;-142.57;46.81;115900.28;4919382;29;20468;-82
2023/08/30 09:16:26;;;;;;;0.98;0.50;;;;;;;-142.57;46.89;115900.28;4936871;29;20047;-86
2023/08/30 09:19:02;;;;;;;4.55;0.70;;;;;;;-142.57;48.02;115900.28;4934842;29;20058;-86
2023/08/30 09:21:28;;;;;;;2.75;0.65;;;;;;;-142.57;45.73;115900.28;4920639;29;20039;-80
2023/08/30 09:24:04;;;;;;;4.85;0.50;;;;;;;-142.57;45.39;115900.28;4936807;29;20058;-84
2023/08/30 09:26:35;;;;;;;8.90;1.05;;;;;;;-142.57;45.99;115900.28;4965400;28;20134;-82
2023/08/30 09:29:03;;;;;;;3.67;0.60;;;;;;;-142.57;45.92;115900.28;4977399;28;20559;-84
2023/08/30 09:31:36;;;;;;;3.28;0.60;;;;;;;-142.57;47.26;115900.28;4978220;28;20050;-86
2023/08/30 09:34:02;;;;;;;1.58;0.80;;;;;;;-142.57;47.87;115900.28;4975916;28;20030;-83
2023/08/30 09:36:38;;;;;;;5.85;1.17;;;;;;;-142.57;46.84;115900.28;4976675;28;20095;-83
2023/08/30 09:39:11;;;;;;;4.53;0.80;;;;;;;-142.57;46.02;115900.28;4978043;28;20368;-83
2023/08/30 09:41:40;;;;;;;3.60;0.63;;;;;;;-142.57;44.36;115900.28;4979689;28;20058;-86
2023/08/30 09:44:20;;;;;;;1.58;0.55;;;;;;;-142.57;45.55;115900.28;4979515;28;20477;-87
2023/08/30 09:46:54;;;;;;;9.73;0.68;;;;;;;-142.57;44.55;115900.28;4979618;28;20035;-86
2023/08/30 09:49:21;;;;;;;2.20;0.43;;;;;;;-142.57;44.16;115900.28;4977523;28;20066;-84
2023/08/30 09:51:48;;;;;;;0.30;0.25;;;;;;;-142.57;43.22;115900.28;4978927;28;20031;-87
2023/08/30 09:54:21;;;;;;;2.42;0.63;;;;;;;-142.57;43.13;115900.28;4979098;28;20500;-83
2023/08/30 09:56:47;;;;;;;1.30;0.40;;;;;;;-142.57;42.57;115900.28;4982671;28;20399;-82
2023/08/30 09:59:14;;;;;;;1.52;0.30;;;;;;;-142.57;41.48;115900.28;4950233;28;20065;-80
2023/08/30 10:01:43;;;;;;;2.17;0.43;;;;;;;-142.57;41.90;115900.28;4978647;28;20035;-82
2023/08/30 10:04:15;;;;;;;1.30;0.40;;;;;;;-142.57;41.40;115900.28;4982371;28;20041;-77
2023/08/30 10:06:40;;;;;;;3.35;0.30;;;;;;;-142.57;42.01;115900.28;4983605;28;20114;-77
2023/08/30 10:09:08;;;;;;;1.02;0.40;;;;;;;-142.57;41.31;115900.28;4984559;28;20516;-81
2023/08/30 10:11:38;;;;;;;3.42;0.50;;;;;;;-142.57;41.46;115900.28;4983824;28;20070;-79
2023/08/30 10:14:07;;;;;;;1.65;0.47;;;;;;;-142.57;40.10;115900.28;4984247;28;20064;-79
2023/08/30 10:16:49;;;;;;;0.93;0.28;;;;;;;-142.57;38.32;115900.28;4984029;28;20439;-78
2023/08/30 10:19:27;;;;;;;3.60;0.32;;;;;;;-142.57;38.74;115900.28;4982560;28;20059;-78
2023/08/30 10:22:05;;;;;;;1.08;0.20;;;;;;;-142.57;39.20;115900.28;4980717;28;20040;-76
2023/08/30 10:24:57;;;;;;;1.27;0.40;;;;;;;-142.57;38.76;115900.28;4986512;28;20034;-79
2023/08/30 10:27:29;;;;;;;2.35;0.40;;;;;;;-142.57;38.44;115900.28;4976930;28;20055;-77
2023/08/30 10:30:03;;;;;;;2.35;0.50;;;;;;;-142.57;38.86;115900.28;4987865;28;20027;-80
2023/08/30 10:32:48;;;;;;;3.55;0.30;;;;;;;-142.57;38.54;115900.28;4985422;28;20035;-80
2023/08/30 10:35:15;;;;;;;5.63;0.52;;;;;;;-142.57;37.99;115900.28;4972915;28;20033;-79
2023/08/30 10:37:58;;;;;;;1.85;0.52;;;;;;;-142.57;36.84;115900.28;4986868;28;20129;-90
2023/08/30 10:40:24;;;;;;;1.63;0.50;;;;;;;-142.57;35.11;115900.28;4992354;28;20034;-89
2023/08/30 10:43:03;;;;;;;1.50;0.25;;;;;;;-142.57;35.02;115900.28;4989448;28;20038;-81
2023/08/30 10:45:35;;;;;;;1.27;0.20;;;;;;;-142.57;35.86;115900.28;4971701;28;20039;-83
2023/08/30 10:48:00;;;;;;;4.57;0.40;;;;;;;-142.57;36.36;115900.28;4973179;28;20046;-77
2023/08/30 10:50:30;;;;;;;2.55;0.20;;;;;;;-142.57;35.67;115900.28;4977264;28;20031;-79
2023/08/30 10:52:59;;;;;;;3.15;0.40;;;;;;;-142.57;34.53;115900.28;4977662;28;20051;-79
2023/08/30 10:55:25;;;;;;;2.72;0.25;;;;;;;-142.57;34.25;115900.28;4979441;28;20039;-80
2023/08/30 10:58:02;;;;;;;1.02;0.28;;;;;;;-142.57;33.72;115900.28;4983484;28;20057;-81
2023/08/30 11:00:29;;;;;;;0.55;0.28;;;;;;;-142.57;33.14;115900.28;4982584;28;20129;-78
2023/08/30 11:02:56;;;;;;;1.60;0.40;;;;;;;-142.57;32.71;115900.28;4984188;28;20034;-77
2023/08/30 11:05:24;;;;;;;0.63;0.30;;;;;;;-142.57;31.76;115900.28;4983744;28;20050;-76
2023/08/30 11:07:51;;;;;;;1.30;0.20;;;;;;;-142.57;31.31;115900.28;4983599;28;20071;-82